createdAt,value
2023-02-13T00:00:13.624Z,39.25
2023-02-13T00:02:40.143Z,42.22
2023-02-13T00:05:06.763Z,46.80
2023-02-13T00:07:33.243Z,47.47
2023-02-13T00:09:59.745Z,50.47
2023-02-13T00:12:26.211Z,54.35
2023-02-13T00:14:52.636Z,59.67
2023-02-13T00:17:19.108Z,56.88
2023-02-13T00:19:45.547Z,56.83
2023-02-13T00:22:12.185Z,52.75
2023-02-13T00:24:38.623Z,55.03
2023-02-13T00:27:05.020Z,56.08
2023-02-13T00:29:31.434Z,53.08
2023-02-13T00:31:58.000Z,52.88
2023-02-13T00:34:24.519Z,50.13
2023-02-13T00:36:50.948Z,53.40
2023-02-13T00:39:17.462Z,46.70
2023-02-13T00:41:43.978Z,47.15
2023-02-13T00:44:10.931Z,50.38
2023-02-13T00:46:38.793Z,45.78
2023-02-13T00:49:05.648Z,45.85
2023-02-13T00:51:32.174Z,52.55
2023-02-13T00:53:58.631Z,51.65
2023-02-13T00:56:25.150Z,51.58
2023-02-13T00:58:51.576Z,54.75
2023-02-13T01:01:18.149Z,55.20
2023-02-13T01:03:44.768Z,52.20
2023-02-13T01:06:11.293Z,52.83
2023-02-13T01:08:41.610Z,49.92
2023-02-13T01:11:08.241Z,47.63
2023-02-13T01:13:34.756Z,52.95
2023-02-13T01:16:01.405Z,47.30
2023-02-13T01:18:28.170Z,49.92
2023-02-13T01:21:17.679Z,51.58
2023-02-13T01:23:44.223Z,53.50
2023-02-13T01:26:11.528Z,54.65
2023-02-13T01:28:38.077Z,56.75
2023-02-13T01:31:04.766Z,54.00
2023-02-13T01:33:31.447Z,55.53
2023-02-13T01:35:58.277Z,50.85
2023-02-13T01:38:24.766Z,55.22
2023-02-13T01:40:52.286Z,52.10
2023-02-13T01:43:19.166Z,53.67
2023-02-13T01:45:47.194Z,46.10
2023-02-13T01:48:15.993Z,47.80
2023-02-13T01:51:05.709Z,50.63
2023-02-13T01:53:33.854Z,49.85
2023-02-13T01:56:06.736Z,49.53
2023-02-13T01:58:35.669Z,50.40
2023-02-13T02:01:03.022Z,49.20
2023-02-13T02:03:32.355Z,51.30
2023-02-13T02:05:59.748Z,50.60
2023-02-13T02:08:26.373Z,53.95
2023-02-13T02:10:53.527Z,56.67
2023-02-13T02:13:21.173Z,55.60
2023-02-13T02:15:48.926Z,53.47
2023-02-13T02:18:19.800Z,52.92
2023-02-13T02:21:01.357Z,49.95
2023-02-13T02:23:45.858Z,54.03
2023-02-13T02:26:12.372Z,50.25
2023-02-13T02:28:38.807Z,54.13
2023-02-13T02:31:20.705Z,50.90
2023-02-13T02:33:47.124Z,52.90
2023-02-13T02:36:32.059Z,58.03
2023-02-13T02:39:01.558Z,61.70
2023-02-13T02:41:42.173Z,59.10
2023-02-13T02:44:28.819Z,59.90
2023-02-13T02:47:28.387Z,58.85
2023-02-13T02:50:08.452Z,62.47
2023-02-13T02:52:52.046Z,60.97
2023-02-13T02:55:29.109Z,56.35
2023-02-13T02:58:20.418Z,53.85
2023-02-13T03:01:06.992Z,38.90
2023-02-13T03:03:52.747Z,48.92
2023-02-13T03:06:40.776Z,49.35
2023-02-13T03:09:32.038Z,48.33
2023-02-13T03:12:17.599Z,36.20
2023-02-13T03:14:44.513Z,46.85
2023-02-13T03:17:34.638Z,49.95
2023-02-13T03:20:19.460Z,46.72
2023-02-13T03:22:45.872Z,44.13
2023-02-13T03:25:30.453Z,52.53
2023-02-13T03:28:33.787Z,50.08
2023-02-13T03:31:15.333Z,57.10
2023-02-13T03:33:45.002Z,54.17
2023-02-13T03:36:29.721Z,55.80
2023-02-13T03:38:59.936Z,62.08
2023-02-13T03:41:30.215Z,56.88
2023-02-13T03:43:56.668Z,58.35
2023-02-13T03:46:24.514Z,53.80
2023-02-13T03:49:09.796Z,55.00
2023-02-13T03:51:54.842Z,55.03
2023-02-13T03:54:42.209Z,58.67
2023-02-13T03:57:28.073Z,55.38
2023-02-13T03:59:55.133Z,55.67
2023-02-13T04:02:24.603Z,56.90
2023-02-13T04:05:02.161Z,56.40
2023-02-13T04:07:30.716Z,49.65
2023-02-13T04:09:59.006Z,49.05
2023-02-13T04:12:35.617Z,59.08
2023-02-13T04:15:24.802Z,58.17
2023-02-13T04:17:56.849Z,57.05
2023-02-13T04:20:26.616Z,55.70
2023-02-13T04:22:53.091Z,52.95
2023-02-13T04:25:20.034Z,59.38
2023-02-13T04:27:46.478Z,61.22
2023-02-13T04:30:13.157Z,57.25
2023-02-13T04:32:39.628Z,54.45
2023-02-13T04:35:06.341Z,51.75
2023-02-13T04:37:32.797Z,54.35
2023-02-13T04:39:59.205Z,48.53
2023-02-13T04:42:25.737Z,49.40
2023-02-13T04:44:52.222Z,55.20
2023-02-13T04:47:18.730Z,49.63
2023-02-13T04:49:45.174Z,53.33
2023-02-13T04:52:11.693Z,54.13
2023-02-13T04:54:38.146Z,56.28
2023-02-13T04:57:04.603Z,49.75
2023-02-13T04:59:31.182Z,57.80
2023-02-13T05:01:59.261Z,56.33
2023-02-13T05:04:25.951Z,52.13
2023-02-13T05:06:52.525Z,53.90
2023-02-13T05:09:18.952Z,53.17
2023-02-13T05:11:45.445Z,65.78
2023-02-13T05:14:12.092Z,63.17
2023-02-13T05:16:38.561Z,57.13
2023-02-13T05:19:04.981Z,59.08
2023-02-13T05:21:49.821Z,59.45
2023-02-13T05:24:16.984Z,57.17
2023-02-13T05:26:44.270Z,53.63
2023-02-13T05:29:19.821Z,50.33
2023-02-13T05:31:56.907Z,65.63
2023-02-13T05:34:24.147Z,54.05
2023-02-13T05:36:50.715Z,52.75
2023-02-13T05:39:17.656Z,51.30
2023-02-13T05:41:44.764Z,49.63
2023-02-13T05:44:11.491Z,51.70
2023-02-13T05:46:39.348Z,57.55
2023-02-13T05:49:06.526Z,54.78
2023-02-13T05:51:33.128Z,57.20
2023-02-13T05:53:59.626Z,50.30
2023-02-13T05:56:26.088Z,56.65
2023-02-13T05:58:53.167Z,54.10
2023-02-13T06:01:19.694Z,59.88
2023-02-13T06:03:46.471Z,61.38
2023-02-13T06:06:13.130Z,59.70
2023-02-13T06:08:39.640Z,61.22
2023-02-13T06:11:06.219Z,59.35
2023-02-13T06:13:32.750Z,57.70
2023-02-13T06:15:59.292Z,61.67
2023-02-13T06:18:25.792Z,59.08
2023-02-13T06:20:52.263Z,57.45
2023-02-13T06:23:18.739Z,56.65
2023-02-13T06:25:47.129Z,53.95
2023-02-13T06:28:13.589Z,59.40
2023-02-13T06:30:40.134Z,54.75
2023-02-13T06:33:06.647Z,56.38
2023-02-13T06:35:33.147Z,73.00
2023-02-13T06:37:59.576Z,71.30
2023-02-13T06:40:26.155Z,69.05
2023-02-13T06:42:52.645Z,76.93
2023-02-13T06:45:19.173Z,83.15
2023-02-13T06:47:46.531Z,81.07
2023-02-13T06:50:14.042Z,77.82
2023-02-13T06:52:45.248Z,72.82
2023-02-13T06:55:11.676Z,52.15
2023-02-13T06:57:38.088Z,64.28
2023-02-13T07:00:05.981Z,69.07
2023-02-13T07:02:33.230Z,65.85
2023-02-13T07:04:59.702Z,61.35
2023-02-13T07:07:26.144Z,59.63
2023-02-13T07:09:52.674Z,59.25
2023-02-13T07:12:19.095Z,55.13
2023-02-13T07:14:45.511Z,57.40
2023-02-13T07:17:11.924Z,54.92
2023-02-13T07:19:38.408Z,58.47
2023-02-13T07:22:04.965Z,54.53
2023-02-13T07:24:33.769Z,58.05
2023-02-13T07:27:00.247Z,58.28
2023-02-13T07:29:26.725Z,49.50
2023-02-13T07:31:53.199Z,48.05
2023-02-13T07:34:19.668Z,47.80
2023-02-13T07:36:46.200Z,51.90
2023-02-13T07:39:12.642Z,48.88
2023-02-13T07:41:39.125Z,51.55
2023-02-13T07:44:05.666Z,50.70
2023-02-13T07:46:32.139Z,53.08
2023-02-13T07:48:58.633Z,57.47
2023-02-13T07:51:25.503Z,69.00
2023-02-13T07:53:52.611Z,53.95
2023-02-13T07:56:19.131Z,55.40
2023-02-13T07:58:45.665Z,52.08
2023-02-13T08:01:16.684Z,50.97
2023-02-13T08:03:43.406Z,57.07
2023-02-13T08:06:09.982Z,52.60
2023-02-13T08:08:36.572Z,52.00
2023-02-13T08:11:25.471Z,33.00
2023-02-13T08:13:51.940Z,42.72
2023-02-13T08:16:18.412Z,41.25
2023-02-13T08:18:44.920Z,43.50
2023-02-13T08:21:11.454Z,32.30
2023-02-13T08:23:37.941Z,29.67
2023-02-13T08:26:04.443Z,29.33
2023-02-13T08:28:31.048Z,30.52
2023-02-13T14:22:28.127Z,15.45
2023-02-13T14:25:02.046Z,16.17
2023-02-13T14:27:33.018Z,16.60
2023-02-13T14:29:59.965Z,15.63
2023-02-13T14:32:33.650Z,15.73
2023-02-13T14:35:02.114Z,14.65
2023-02-13T14:37:31.255Z,15.63
2023-02-13T14:40:11.402Z,16.60
2023-02-13T14:42:39.226Z,17.77
2023-02-13T14:45:13.937Z,16.10
2023-02-13T15:39:09.541Z,18.13
2023-02-13T15:41:38.648Z,17.42
2023-02-13T15:44:05.292Z,16.83
2023-02-13T15:46:33.796Z,17.55
2023-02-13T15:49:01.761Z,19.38
2023-02-13T15:51:29.840Z,17.42
2023-02-13T15:53:57.808Z,17.67
2023-02-13T15:56:24.372Z,18.92
2023-02-13T15:58:51.985Z,17.60
2023-02-13T16:01:18.507Z,16.40
2023-02-13T16:03:49.908Z,16.73
2023-02-13T16:06:17.744Z,18.50
2023-02-13T16:09:04.518Z,19.02
2023-02-13T16:11:34.980Z,18.38
2023-02-13T16:14:13.944Z,17.63
2023-02-13T16:16:45.052Z,18.10
2023-02-13T16:19:34.897Z,19.10
2023-02-13T16:22:20.062Z,19.88
2023-02-13T16:24:51.152Z,24.17
2023-02-13T16:27:18.916Z,23.13
2023-02-13T16:29:54.701Z,22.17
2023-02-13T16:32:29.654Z,21.35
2023-02-13T16:34:56.572Z,24.38
2023-02-13T16:37:27.198Z,22.52
2023-02-13T16:39:53.738Z,22.85
2023-02-13T16:42:20.407Z,22.92
2023-02-13T16:44:46.864Z,22.50
2023-02-13T16:47:24.198Z,24.60
2023-02-13T16:49:55.171Z,24.85
2023-02-13T16:52:26.657Z,24.60
2023-02-13T16:54:55.327Z,26.20
2023-02-13T16:57:23.653Z,29.55
2023-02-13T16:59:55.121Z,27.00
2023-02-13T17:02:25.768Z,28.48
2023-02-13T17:05:07.549Z,28.60
2023-02-13T17:07:35.467Z,31.13
2023-02-13T17:10:01.963Z,29.40
2023-02-13T17:12:29.614Z,29.80
2023-02-13T17:14:59.914Z,31.15
2023-02-13T17:17:28.080Z,29.90
2023-02-13T17:19:54.590Z,28.98
2023-02-13T17:22:37.937Z,32.63
2023-02-13T17:25:07.494Z,32.90
2023-02-13T17:27:34.256Z,30.33
2023-02-13T17:30:00.844Z,33.17
2023-02-13T17:32:27.825Z,30.10
2023-02-13T17:34:54.534Z,28.88
2023-02-13T17:37:27.816Z,29.08
2023-02-13T17:39:54.600Z,26.73
2023-02-13T17:42:25.827Z,26.48
2023-02-13T17:44:53.090Z,28.65
2023-02-13T17:47:19.915Z,28.02
2023-02-13T17:49:47.752Z,30.20
2023-02-13T17:52:16.935Z,29.00
2023-02-13T17:54:44.358Z,28.85
2023-02-13T17:57:11.669Z,27.83
2023-02-13T17:59:38.348Z,28.20
2023-02-13T18:02:09.453Z,27.08
2023-02-13T18:04:35.866Z,25.73
2023-02-13T18:07:02.505Z,25.40
2023-02-13T18:09:28.965Z,26.05
2023-02-13T18:12:05.096Z,26.80
2023-02-13T18:14:32.817Z,28.88
2023-02-13T18:16:59.243Z,27.70
2023-02-13T18:19:25.848Z,29.05
2023-02-13T18:21:52.322Z,29.88
2023-02-13T18:24:18.882Z,30.42
2023-02-13T18:26:45.346Z,30.45
2023-02-13T18:29:11.833Z,31.60
2023-02-13T18:31:38.440Z,31.65
2023-02-13T18:34:04.903Z,34.58
2023-02-13T18:36:31.393Z,36.85
2023-02-13T18:38:57.882Z,34.85
2023-02-13T18:41:24.332Z,35.63
2023-02-13T18:43:50.842Z,34.13
2023-02-13T18:46:17.426Z,38.13
2023-02-13T18:48:43.863Z,36.45
2023-02-13T18:51:10.356Z,32.97
2023-02-13T18:53:36.964Z,32.03
2023-02-13T18:56:04.727Z,31.63
2023-02-13T18:58:31.164Z,34.30
2023-02-13T19:01:04.595Z,32.58
2023-02-13T19:03:31.051Z,37.22
2023-02-13T19:05:58.923Z,34.92
2023-02-13T19:08:25.416Z,35.83
2023-02-13T19:10:51.912Z,34.25
2023-02-13T19:13:18.429Z,33.88
2023-02-13T19:15:44.998Z,32.83
2023-02-13T19:18:11.441Z,34.30
2023-02-13T19:20:39.981Z,32.40
2023-02-13T19:23:06.412Z,35.28
2023-02-13T19:25:35.759Z,35.85
2023-02-13T19:28:02.142Z,35.72
2023-02-13T19:30:28.644Z,35.72
2023-02-13T19:32:55.073Z,35.83
2023-02-13T19:35:21.493Z,33.50
2023-02-13T19:37:47.916Z,34.63
2023-02-13T19:40:14.457Z,33.55
2023-02-13T19:42:40.920Z,31.48
2023-02-13T19:45:07.504Z,32.30
2023-02-13T19:47:34.195Z,31.67
2023-02-13T19:50:00.746Z,35.13
2023-02-13T19:52:27.218Z,35.90
2023-02-13T19:54:54.185Z,33.20
2023-02-13T19:57:21.986Z,34.28
2023-02-13T19:59:48.537Z,31.30
2023-02-13T20:02:15.630Z,31.98
2023-02-13T20:04:42.185Z,37.53
2023-02-13T20:07:08.798Z,32.85
2023-02-13T20:09:35.434Z,34.50
2023-02-13T20:12:01.875Z,35.13
2023-02-13T20:14:28.364Z,35.80
2023-02-13T20:16:54.847Z,34.28
2023-02-13T20:19:21.604Z,37.03
2023-02-13T20:21:48.102Z,36.92
2023-02-13T20:24:14.622Z,33.78
2023-02-13T20:26:41.304Z,35.55
2023-02-13T20:29:08.879Z,34.22
2023-02-13T20:31:35.750Z,36.65
2023-02-13T20:34:02.690Z,35.50
2023-02-13T20:36:30.687Z,38.03
2023-02-13T20:38:59.549Z,36.38
2023-02-13T20:41:26.856Z,38.35
2023-02-13T20:43:53.422Z,38.10
2023-02-13T20:46:19.918Z,36.72
2023-02-13T20:48:47.610Z,34.15
2023-02-13T20:51:15.611Z,34.70
2023-02-13T20:53:42.274Z,38.75
2023-02-13T20:56:19.261Z,35.72
2023-02-13T20:58:46.746Z,35.83
2023-02-13T21:01:14.238Z,35.33
2023-02-13T21:03:41.465Z,35.90
2023-02-13T21:06:08.772Z,35.92
2023-02-13T21:08:35.748Z,34.95
2023-02-13T21:11:02.981Z,39.05
2023-02-13T21:13:29.506Z,37.97
2023-02-13T21:16:03.201Z,38.78
2023-02-13T21:18:29.632Z,39.03
2023-02-13T21:20:57.483Z,38.38
2023-02-13T21:23:24.191Z,38.97
2023-02-13T21:25:50.589Z,40.88
2023-02-13T21:28:17.276Z,40.15
2023-02-13T21:30:43.853Z,42.08
2023-02-13T21:33:10.316Z,41.42
2023-02-13T21:35:36.785Z,40.50
2023-02-13T21:38:03.305Z,43.90
2023-02-13T21:40:29.743Z,42.25
2023-02-13T21:42:56.178Z,46.95
2023-02-13T21:45:22.615Z,61.28
2023-02-13T21:47:49.181Z,68.10
2023-02-13T21:50:15.656Z,69.50
2023-02-13T21:52:42.058Z,68.57
2023-02-13T21:55:08.982Z,63.78
2023-02-13T21:57:35.443Z,55.90
2023-02-13T22:00:04.064Z,60.78
2023-02-13T22:02:30.674Z,55.72
2023-02-13T22:04:57.193Z,49.75
2023-02-13T22:07:23.725Z,54.22
2023-02-13T22:09:50.338Z,52.63
2023-02-13T22:12:16.792Z,48.70
2023-02-13T22:14:43.236Z,50.53
2023-02-13T22:17:09.759Z,52.78
2023-02-13T22:19:36.197Z,53.92
2023-02-13T22:22:02.604Z,45.33
2023-02-13T22:24:29.071Z,44.78
2023-02-13T22:26:55.592Z,45.10
2023-02-13T22:29:23.858Z,42.00
2023-02-13T22:31:50.437Z,39.03
2023-02-13T22:34:16.991Z,38.70
2023-02-13T22:36:43.545Z,38.42
2023-02-13T22:39:10.644Z,37.90
2023-02-13T22:41:37.391Z,37.42
2023-02-13T22:44:03.896Z,38.35
2023-02-13T22:46:31.818Z,39.10
2023-02-13T22:48:58.875Z,39.50
2023-02-13T22:51:28.035Z,40.10
2023-02-13T22:53:55.431Z,36.95
2023-02-13T22:56:22.417Z,37.70
2023-02-13T22:58:48.962Z,37.03
2023-02-13T23:01:16.895Z,35.55
2023-02-13T23:03:43.424Z,38.10
2023-02-13T23:06:22.197Z,38.00
2023-02-13T23:08:53.537Z,35.22
2023-02-13T23:11:39.781Z,39.83
2023-02-13T23:14:06.287Z,36.22
2023-02-13T23:16:52.716Z,36.90
2023-02-13T23:19:19.473Z,35.50
2023-02-13T23:21:45.932Z,37.03
2023-02-13T23:24:12.380Z,34.25
2023-02-13T23:26:39.024Z,40.15
2023-02-13T23:29:05.467Z,43.95
2023-02-13T23:31:32.085Z,44.28
2023-02-13T23:33:58.635Z,44.58
2023-02-13T23:36:25.088Z,45.33
2023-02-13T23:38:51.518Z,41.05
2023-02-13T23:41:18.043Z,38.50
2023-02-13T23:43:44.518Z,36.47
2023-02-13T23:46:10.958Z,39.03
2023-02-13T23:48:37.445Z,36.13
2023-02-13T23:51:04.054Z,35.13
2023-02-13T23:53:30.565Z,35.47
2023-02-13T23:55:57.039Z,34.03
2023-02-13T23:58:23.518Z,33.40
